sensor_id;sensor_type;location;lat;lon;timestamp;P1;durP1;ratioP1;P2;durP2;ratioP2
44764;SDS011;30484;52.382;5.260;2023-04-23T00:01:26;268.52;;;91.47;;
44764;SDS011;30484;52.382;5.260;2023-04-23T00:04:00;274.23;;;94.20;;
44764;SDS011;30484;52.382;5.260;2023-04-23T00:06:35;265.92;;;92.65;;
44764;SDS011;30484;52.382;5.260;2023-04-23T00:09:07;264.83;;;91.93;;
44764;SDS011;30484;52.382;5.260;2023-04-23T00:11:41;279.25;;;92.78;;
44764;SDS011;30484;52.382;5.260;2023-04-23T00:14:15;269.38;;;91.30;;
44764;SDS011;30484;52.382;5.260;2023-04-23T00:16:47;267.02;;;88.28;;
44764;SDS011;30484;52.382;5.260;2023-04-23T00:19:23;258.88;;;88.18;;
44764;SDS011;30484;52.382;5.260;2023-04-23T00:21:56;266.38;;;90.57;;
44764;SDS011;30484;52.382;5.260;2023-04-23T00:24:28;273.83;;;94.88;;
44764;SDS011;30484;52.382;5.260;2023-04-23T00:27:05;271.88;;;92.35;;
44764;SDS011;30484;52.382;5.260;2023-04-23T00:29:38;266.80;;;93.65;;
44764;SDS011;30484;52.382;5.260;2023-04-23T00:32:12;266.80;;;92.00;;
44764;SDS011;30484;52.382;5.260;2023-04-23T00:34:43;267.40;;;89.30;;
44764;SDS011;30484;52.382;5.260;2023-04-23T00:37:15;284.30;;;92.70;;
44764;SDS011;30484;52.382;5.260;2023-04-23T00:39:45;280.33;;;90.07;;
44764;SDS011;30484;52.382;5.260;2023-04-23T00:42:16;271.90;;;90.65;;
44764;SDS011;30484;52.382;5.260;2023-04-23T00:44:47;274.85;;;91.03;;
44764;SDS011;30484;52.382;5.260;2023-04-23T00:47:31;269.40;;;90.50;;
44764;SDS011;30484;52.382;5.260;2023-04-23T00:50:04;273.05;;;93.07;;
44764;SDS011;30484;52.382;5.260;2023-04-23T00:52:42;259.95;;;91.50;;
44764;SDS011;30484;52.382;5.260;2023-04-23T00:55:14;281.63;;;93.53;;
44764;SDS011;30484;52.382;5.260;2023-04-23T00:57:48;292.52;;;95.05;;
44764;SDS011;30484;52.382;5.260;2023-04-23T01:00:24;272.35;;;92.43;;
44764;SDS011;30484;52.382;5.260;2023-04-23T01:02:56;277.08;;;94.40;;
44764;SDS011;30484;52.382;5.260;2023-04-23T01:05:28;279.90;;;92.60;;
44764;SDS011;30484;52.382;5.260;2023-04-23T01:10:33;264.52;;;87.05;;
44764;SDS011;30484;52.382;5.260;2023-04-23T01:13:08;273.40;;;89.07;;
44764;SDS011;30484;52.382;5.260;2023-04-23T01:15:40;277.60;;;90.20;;
44764;SDS011;30484;52.382;5.260;2023-04-23T01:18:13;271.70;;;91.03;;
44764;SDS011;30484;52.382;5.260;2023-04-23T01:20:47;283.92;;;93.57;;
44764;SDS011;30484;52.382;5.260;2023-04-23T01:23:19;298.88;;;91.72;;
44764;SDS011;30484;52.382;5.260;2023-04-23T01:25:49;285.35;;;93.88;;
44764;SDS011;30484;52.382;5.260;2023-04-23T01:28:21;286.02;;;95.65;;
44764;SDS011;30484;52.382;5.260;2023-04-23T01:30:54;293.08;;;95.10;;
44764;SDS011;30484;52.382;5.260;2023-04-23T01:33:25;282.52;;;92.32;;
44764;SDS011;30484;52.382;5.260;2023-04-23T01:35:55;307.00;;;97.13;;
44764;SDS011;30484;52.382;5.260;2023-04-23T01:38:29;300.58;;;97.50;;
44764;SDS011;30484;52.382;5.260;2023-04-23T01:41:01;289.55;;;92.43;;
44764;SDS011;30484;52.382;5.260;2023-04-23T01:43:34;300.00;;;95.40;;
44764;SDS011;30484;52.382;5.260;2023-04-23T01:46:05;298.17;;;96.13;;
44764;SDS011;30484;52.382;5.260;2023-04-23T01:48:35;301.52;;;95.70;;
44764;SDS011;30484;52.382;5.260;2023-04-23T01:53:47;279.98;;;89.38;;
44764;SDS011;30484;52.382;5.260;2023-04-23T01:56:17;283.33;;;91.88;;
44764;SDS011;30484;52.382;5.260;2023-04-23T01:58:53;281.88;;;92.93;;
44764;SDS011;30484;52.382;5.260;2023-04-23T02:01:39;285.63;;;93.13;;
44764;SDS011;30484;52.382;5.260;2023-04-23T02:04:14;277.52;;;92.00;;
44764;SDS011;30484;52.382;5.260;2023-04-23T02:06:49;272.95;;;90.28;;
44764;SDS011;30484;52.382;5.260;2023-04-23T02:09:24;282.55;;;93.35;;
44764;SDS011;30484;52.382;5.260;2023-04-23T02:12:10;271.42;;;89.90;;
44764;SDS011;30484;52.382;5.260;2023-04-23T02:14:44;260.58;;;88.65;;
44764;SDS011;30484;52.382;5.260;2023-04-23T02:17:18;267.85;;;89.03;;
44764;SDS011;30484;52.382;5.260;2023-04-23T02:19:50;245.75;;;86.95;;
44764;SDS011;30484;52.382;5.260;2023-04-23T02:22:24;243.85;;;87.68;;
44764;SDS011;30484;52.382;5.260;2023-04-23T02:25:02;244.35;;;87.93;;
44764;SDS011;30484;52.382;5.260;2023-04-23T02:27:35;240.82;;;85.88;;
44764;SDS011;30484;52.382;5.260;2023-04-23T02:30:09;243.45;;;86.90;;
44764;SDS011;30484;52.382;5.260;2023-04-23T02:32:43;239.83;;;85.83;;
44764;SDS011;30484;52.382;5.260;2023-04-23T02:35:14;240.57;;;85.93;;
44764;SDS011;30484;52.382;5.260;2023-04-23T02:37:45;242.43;;;84.57;;
44764;SDS011;30484;52.382;5.260;2023-04-23T02:40:19;244.32;;;86.70;;
44764;SDS011;30484;52.382;5.260;2023-04-23T02:42:50;220.93;;;84.95;;
44764;SDS011;30484;52.382;5.260;2023-04-23T02:45:20;229.00;;;84.68;;
44764;SDS011;30484;52.382;5.260;2023-04-23T02:47:54;236.45;;;84.28;;
44764;SDS011;30484;52.382;5.260;2023-04-23T02:50:30;233.18;;;82.75;;
44764;SDS011;30484;52.382;5.260;2023-04-23T02:53:02;222.15;;;83.63;;
44764;SDS011;30484;52.382;5.260;2023-04-23T02:55:35;214.27;;;80.68;;
44764;SDS011;30484;52.382;5.260;2023-04-23T02:58:06;221.73;;;82.00;;
44764;SDS011;30484;52.382;5.260;2023-04-23T03:00:39;212.93;;;78.82;;
44764;SDS011;30484;52.382;5.260;2023-04-23T03:03:11;214.18;;;79.60;;
44764;SDS011;30484;52.382;5.260;2023-04-23T03:05:42;208.40;;;76.90;;
44764;SDS011;30484;52.382;5.260;2023-04-23T03:08:16;195.23;;;74.47;;
44764;SDS011;30484;52.382;5.260;2023-04-23T03:10:49;200.45;;;76.35;;
44764;SDS011;30484;52.382;5.260;2023-04-23T03:13:22;197.75;;;73.75;;
44764;SDS011;30484;52.382;5.260;2023-04-23T03:15:56;197.85;;;74.30;;
44764;SDS011;30484;52.382;5.260;2023-04-23T03:18:33;190.05;;;72.80;;
44764;SDS011;30484;52.382;5.260;2023-04-23T03:21:03;194.68;;;75.35;;
44764;SDS011;30484;52.382;5.260;2023-04-23T03:23:33;186.07;;;72.40;;
44764;SDS011;30484;52.382;5.260;2023-04-23T03:26:06;186.15;;;73.13;;
44764;SDS011;30484;52.382;5.260;2023-04-23T03:28:38;196.48;;;71.68;;
44764;SDS011;30484;52.382;5.260;2023-04-23T03:31:13;201.67;;;74.77;;
44764;SDS011;30484;52.382;5.260;2023-04-23T03:33:43;192.27;;;73.53;;
44764;SDS011;30484;52.382;5.260;2023-04-23T03:36:14;188.23;;;72.38;;
44764;SDS011;30484;52.382;5.260;2023-04-23T03:38:48;187.82;;;74.25;;
44764;SDS011;30484;52.382;5.260;2023-04-23T03:41:20;181.00;;;71.60;;
44764;SDS011;30484;52.382;5.260;2023-04-23T03:43:50;181.23;;;70.90;;
44764;SDS011;30484;52.382;5.260;2023-04-23T03:46:21;184.07;;;69.50;;
44764;SDS011;30484;52.382;5.260;2023-04-23T03:48:51;174.63;;;70.35;;
44764;SDS011;30484;52.382;5.260;2023-04-23T03:51:21;182.38;;;70.55;;
44764;SDS011;30484;52.382;5.260;2023-04-23T03:53:53;170.05;;;65.60;;
44764;SDS011;30484;52.382;5.260;2023-04-23T03:56:24;160.38;;;67.18;;
44764;SDS011;30484;52.382;5.260;2023-04-23T03:58:58;157.20;;;64.20;;
44764;SDS011;30484;52.382;5.260;2023-04-23T04:01:28;160.68;;;65.30;;
44764;SDS011;30484;52.382;5.260;2023-04-23T04:03:58;153.65;;;61.75;;
44764;SDS011;30484;52.382;5.260;2023-04-23T04:06:33;148.93;;;62.10;;
44764;SDS011;30484;52.382;5.260;2023-04-23T04:09:03;140.23;;;61.42;;
44764;SDS011;30484;52.382;5.260;2023-04-23T04:11:35;133.52;;;57.33;;
44764;SDS011;30484;52.382;5.260;2023-04-23T04:14:06;128.90;;;58.33;;
44764;SDS011;30484;52.382;5.260;2023-04-23T04:16:36;128.02;;;57.03;;
44764;SDS011;30484;52.382;5.260;2023-04-23T04:19:05;121.40;;;55.60;;
44764;SDS011;30484;52.382;5.260;2023-04-23T04:21:38;131.13;;;55.95;;
44764;SDS011;30484;52.382;5.260;2023-04-23T04:24:11;112.88;;;53.13;;
44764;SDS011;30484;52.382;5.260;2023-04-23T04:26:48;127.97;;;56.75;;
44764;SDS011;30484;52.382;5.260;2023-04-23T04:29:21;117.60;;;54.38;;
44764;SDS011;30484;52.382;5.260;2023-04-23T04:31:51;117.80;;;54.58;;
44764;SDS011;30484;52.382;5.260;2023-04-23T04:34:22;125.63;;;55.22;;
44764;SDS011;30484;52.382;5.260;2023-04-23T04:36:58;121.88;;;53.65;;
44764;SDS011;30484;52.382;5.260;2023-04-23T04:39:33;123.88;;;55.70;;
44764;SDS011;30484;52.382;5.260;2023-04-23T04:42:07;127.32;;;54.88;;
44764;SDS011;30484;52.382;5.260;2023-04-23T04:44:38;124.57;;;54.20;;
44764;SDS011;30484;52.382;5.260;2023-04-23T04:47:13;122.20;;;54.75;;
44764;SDS011;30484;52.382;5.260;2023-04-23T04:49:47;123.75;;;55.10;;
44764;SDS011;30484;52.382;5.260;2023-04-23T04:52:17;121.50;;;52.33;;
44764;SDS011;30484;52.382;5.260;2023-04-23T04:54:47;125.70;;;55.03;;
44764;SDS011;30484;52.382;5.260;2023-04-23T04:57:20;118.78;;;54.72;;
44764;SDS011;30484;52.382;5.260;2023-04-23T04:59:49;113.72;;;52.78;;
44764;SDS011;30484;52.382;5.260;2023-04-23T05:02:25;121.32;;;54.05;;
44764;SDS011;30484;52.382;5.260;2023-04-23T05:05:03;114.28;;;51.45;;
44764;SDS011;30484;52.382;5.260;2023-04-23T05:07:37;110.78;;;51.88;;
44764;SDS011;30484;52.382;5.260;2023-04-23T05:10:10;106.25;;;51.38;;
44764;SDS011;30484;52.382;5.260;2023-04-23T05:12:43;104.53;;;49.85;;
44764;SDS011;30484;52.382;5.260;2023-04-23T05:15:14;103.35;;;49.47;;
44764;SDS011;30484;52.382;5.260;2023-04-23T05:17:47;97.45;;;48.47;;
44764;SDS011;30484;52.382;5.260;2023-04-23T05:20:20;97.63;;;49.95;;
44764;SDS011;30484;52.382;5.260;2023-04-23T05:22:51;95.70;;;48.15;;
44764;SDS011;30484;52.382;5.260;2023-04-23T05:25:21;99.55;;;49.70;;
44764;SDS011;30484;52.382;5.260;2023-04-23T05:27:56;93.53;;;48.33;;
44764;SDS011;30484;52.382;5.260;2023-04-23T05:30:33;90.57;;;46.25;;
44764;SDS011;30484;52.382;5.260;2023-04-23T05:33:05;94.22;;;46.88;;
44764;SDS011;30484;52.382;5.260;2023-04-23T05:35:38;93.35;;;47.65;;
44764;SDS011;30484;52.382;5.260;2023-04-23T05:38:08;93.20;;;46.10;;
44764;SDS011;30484;52.382;5.260;2023-04-23T05:40:38;86.85;;;44.25;;
44764;SDS011;30484;52.382;5.260;2023-04-23T05:43:15;86.80;;;45.05;;
44764;SDS011;30484;52.382;5.260;2023-04-23T05:45:49;81.57;;;44.45;;
44764;SDS011;30484;52.382;5.260;2023-04-23T05:48:19;78.75;;;42.75;;
44764;SDS011;30484;52.382;5.260;2023-04-23T05:50:50;76.65;;;43.22;;
44764;SDS011;30484;52.382;5.260;2023-04-23T05:53:20;73.85;;;41.95;;
44764;SDS011;30484;52.382;5.260;2023-04-23T05:55:49;72.85;;;41.72;;
44764;SDS011;30484;52.382;5.260;2023-04-23T05:58:20;78.07;;;42.40;;
44764;SDS011;30484;52.382;5.260;2023-04-23T06:00:50;74.03;;;41.65;;
44764;SDS011;30484;52.382;5.260;2023-04-23T06:03:23;74.63;;;41.05;;
44764;SDS011;30484;52.382;5.260;2023-04-23T06:05:56;69.18;;;39.85;;
44764;SDS011;30484;52.382;5.260;2023-04-23T06:08:27;72.00;;;39.80;;
44764;SDS011;30484;52.382;5.260;2023-04-23T06:11:00;67.53;;;38.60;;
44764;SDS011;30484;52.382;5.260;2023-04-23T06:13:33;61.03;;;37.25;;
44764;SDS011;30484;52.382;5.260;2023-04-23T06:16:09;66.13;;;37.55;;
44764;SDS011;30484;52.382;5.260;2023-04-23T06:18:38;61.60;;;36.63;;
44764;SDS011;30484;52.382;5.260;2023-04-23T06:21:07;64.63;;;37.15;;
44764;SDS011;30484;52.382;5.260;2023-04-23T06:23:36;58.47;;;36.28;;
44764;SDS011;30484;52.382;5.260;2023-04-23T06:26:05;59.75;;;35.70;;
44764;SDS011;30484;52.382;5.260;2023-04-23T06:28:39;55.38;;;33.58;;
44764;SDS011;30484;52.382;5.260;2023-04-23T06:31:11;57.45;;;34.30;;
44764;SDS011;30484;52.382;5.260;2023-04-23T06:33:41;52.65;;;33.83;;
44764;SDS011;30484;52.382;5.260;2023-04-23T06:36:10;52.47;;;32.67;;
44764;SDS011;30484;52.382;5.260;2023-04-23T06:38:40;53.05;;;32.05;;
44764;SDS011;30484;52.382;5.260;2023-04-23T06:41:12;45.75;;;30.83;;
44764;SDS011;30484;52.382;5.260;2023-04-23T06:43:45;48.08;;;30.02;;
44764;SDS011;30484;52.382;5.260;2023-04-23T06:46:17;45.15;;;27.67;;
44764;SDS011;30484;52.382;5.260;2023-04-23T06:48:50;45.55;;;27.48;;
44764;SDS011;30484;52.382;5.260;2023-04-23T06:51:18;43.13;;;27.42;;
44764;SDS011;30484;52.382;5.260;2023-04-23T06:53:51;39.33;;;24.95;;
44764;SDS011;30484;52.382;5.260;2023-04-23T06:56:21;39.95;;;25.48;;
44764;SDS011;30484;52.382;5.260;2023-04-23T06:58:54;42.88;;;26.48;;
44764;SDS011;30484;52.382;5.260;2023-04-23T07:01:27;42.80;;;24.97;;
44764;SDS011;30484;52.382;5.260;2023-04-23T07:03:57;39.90;;;24.48;;
44764;SDS011;30484;52.382;5.260;2023-04-23T07:06:30;37.00;;;24.58;;
44764;SDS011;30484;52.382;5.260;2023-04-23T07:09:01;34.75;;;22.10;;
44764;SDS011;30484;52.382;5.260;2023-04-23T07:11:31;36.55;;;22.77;;
44764;SDS011;30484;52.382;5.260;2023-04-23T07:14:05;36.42;;;22.27;;
44764;SDS011;30484;52.382;5.260;2023-04-23T07:16:34;35.42;;;21.75;;
44764;SDS011;30484;52.382;5.260;2023-04-23T07:19:03;34.78;;;21.60;;
44764;SDS011;30484;52.382;5.260;2023-04-23T07:21:34;35.90;;;21.85;;
44764;SDS011;30484;52.382;5.260;2023-04-23T07:24:03;30.70;;;20.52;;
44764;SDS011;30484;52.382;5.260;2023-04-23T07:26:36;36.63;;;20.98;;
44764;SDS011;30484;52.382;5.260;2023-04-23T07:29:08;31.60;;;19.50;;
44764;SDS011;30484;52.382;5.260;2023-04-23T07:31:42;32.40;;;19.45;;
44764;SDS011;30484;52.382;5.260;2023-04-23T07:34:12;30.45;;;17.42;;
44764;SDS011;30484;52.382;5.260;2023-04-23T07:36:41;31.25;;;17.48;;
44764;SDS011;30484;52.382;5.260;2023-04-23T07:39:12;23.75;;;16.60;;
44764;SDS011;30484;52.382;5.260;2023-04-23T07:41:43;25.20;;;15.85;;
44764;SDS011;30484;52.382;5.260;2023-04-23T07:44:16;23.80;;;13.63;;
44764;SDS011;30484;52.382;5.260;2023-04-23T07:46:47;23.92;;;13.82;;
44764;SDS011;30484;52.382;5.260;2023-04-23T07:49:18;24.33;;;13.98;;
44764;SDS011;30484;52.382;5.260;2023-04-23T07:51:49;21.00;;;13.43;;
44764;SDS011;30484;52.382;5.260;2023-04-23T07:54:24;22.80;;;12.98;;
44764;SDS011;30484;52.382;5.260;2023-04-23T07:57:13;20.35;;;13.55;;
44764;SDS011;30484;52.382;5.260;2023-04-23T07:59:45;20.88;;;12.80;;
44764;SDS011;30484;52.382;5.260;2023-04-23T08:02:16;21.25;;;12.55;;
44764;SDS011;30484;52.382;5.260;2023-04-23T08:04:49;19.83;;;10.88;;
44764;SDS011;30484;52.382;5.260;2023-04-23T08:07:19;22.02;;;11.25;;
44764;SDS011;30484;52.382;5.260;2023-04-23T08:09:52;19.77;;;11.00;;
44764;SDS011;30484;52.382;5.260;2023-04-23T08:12:22;22.67;;;10.32;;
44764;SDS011;30484;52.382;5.260;2023-04-23T08:14:54;21.35;;;9.27;;
44764;SDS011;30484;52.382;5.260;2023-04-23T08:17:24;16.63;;;9.10;;
44764;SDS011;30484;52.382;5.260;2023-04-23T08:19:56;15.55;;;8.65;;
44764;SDS011;30484;52.382;5.260;2023-04-23T08:22:28;15.38;;;7.43;;
44764;SDS011;30484;52.382;5.260;2023-04-23T08:25:01;16.08;;;7.88;;
44764;SDS011;30484;52.382;5.260;2023-04-23T08:27:35;17.00;;;7.90;;
44764;SDS011;30484;52.382;5.260;2023-04-23T08:30:07;15.75;;;7.15;;
44764;SDS011;30484;52.382;5.260;2023-04-23T08:32:37;13.18;;;7.35;;
44764;SDS011;30484;52.382;5.260;2023-04-23T08:35:08;13.85;;;6.43;;
44764;SDS011;30484;52.382;5.260;2023-04-23T08:37:45;11.82;;;5.80;;
44764;SDS011;30484;52.382;5.260;2023-04-23T08:40:17;15.63;;;6.80;;
44764;SDS011;30484;52.382;5.260;2023-04-23T08:42:48;14.73;;;6.55;;
44764;SDS011;30484;52.382;5.260;2023-04-23T08:45:27;16.58;;;5.75;;
44764;SDS011;30484;52.382;5.260;2023-04-23T08:47:58;15.13;;;5.40;;
44764;SDS011;30484;52.382;5.260;2023-04-23T08:50:30;13.73;;;5.03;;
44764;SDS011;30484;52.382;5.260;2023-04-23T08:53:02;10.07;;;4.97;;
44764;SDS011;30484;52.382;5.260;2023-04-23T08:55:34;14.40;;;4.97;;
44764;SDS011;30484;52.382;5.260;2023-04-23T08:58:13;13.88;;;5.38;;
44764;SDS011;30484;52.382;5.260;2023-04-23T09:00:45;11.05;;;4.32;;
44764;SDS011;30484;52.382;5.260;2023-04-23T09:03:16;13.05;;;4.80;;
44764;SDS011;30484;52.382;5.260;2023-04-23T09:05:50;11.80;;;4.70;;
44764;SDS011;30484;52.382;5.260;2023-04-23T09:08:22;12.25;;;3.97;;
44764;SDS011;30484;52.382;5.260;2023-04-23T09:10:57;15.00;;;4.43;;
44764;SDS011;30484;52.382;5.260;2023-04-23T09:13:37;9.02;;;3.78;;
44764;SDS011;30484;52.382;5.260;2023-04-23T09:16:09;12.57;;;4.05;;
44764;SDS011;30484;52.382;5.260;2023-04-23T09:18:45;9.68;;;3.78;;
44764;SDS011;30484;52.382;5.260;2023-04-23T09:21:20;10.45;;;4.15;;
44764;SDS011;30484;52.382;5.260;2023-04-23T09:24:09;11.48;;;3.78;;
44764;SDS011;30484;52.382;5.260;2023-04-23T09:26:47;10.57;;;3.38;;
44764;SDS011;30484;52.382;5.260;2023-04-23T09:29:30;11.52;;;3.35;;
44764;SDS011;30484;52.382;5.260;2023-04-23T09:32:05;7.88;;;3.15;;
44764;SDS011;30484;52.382;5.260;2023-04-23T09:34:37;9.15;;;2.88;;
44764;SDS011;30484;52.382;5.260;2023-04-23T09:37:07;9.85;;;2.58;;
44764;SDS011;30484;52.382;5.260;2023-04-23T09:39:47;11.77;;;2.90;;
44764;SDS011;30484;52.382;5.260;2023-04-23T09:42:22;10.18;;;3.08;;
44764;SDS011;30484;52.382;5.260;2023-04-23T09:44:59;12.02;;;3.22;;
44764;SDS011;30484;52.382;5.260;2023-04-23T09:47:37;13.60;;;3.38;;
44764;SDS011;30484;52.382;5.260;2023-04-23T09:50:10;15.55;;;3.40;;
44764;SDS011;30484;52.382;5.260;2023-04-23T09:52:52;12.77;;;3.35;;
44764;SDS011;30484;52.382;5.260;2023-04-23T09:55:29;10.85;;;3.22;;
44764;SDS011;30484;52.382;5.260;2023-04-23T09:58:05;13.52;;;3.00;;
44764;SDS011;30484;52.382;5.260;2023-04-23T10:00:42;15.32;;;3.10;;
44764;SDS011;30484;52.382;5.260;2023-04-23T10:03:20;14.15;;;2.78;;
44764;SDS011;30484;52.382;5.260;2023-04-23T10:05:56;13.07;;;3.08;;
44764;SDS011;30484;52.382;5.260;2023-04-23T10:08:29;13.18;;;3.17;;
44764;SDS011;30484;52.382;5.260;2023-04-23T10:11:09;18.67;;;2.53;;
44764;SDS011;30484;52.382;5.260;2023-04-23T10:13:45;14.77;;;2.90;;
44764;SDS011;30484;52.382;5.260;2023-04-23T10:16:18;9.65;;;2.65;;
44764;SDS011;30484;52.382;5.260;2023-04-23T10:19:09;13.93;;;3.10;;
44764;SDS011;30484;52.382;5.260;2023-04-23T10:21:45;12.30;;;2.65;;
44764;SDS011;30484;52.382;5.260;2023-04-23T10:24:23;17.42;;;2.83;;
44764;SDS011;30484;52.382;5.260;2023-04-23T10:26:58;11.07;;;3.03;;
44764;SDS011;30484;52.382;5.260;2023-04-23T10:29:52;15.07;;;3.60;;
44764;SDS011;30484;52.382;5.260;2023-04-23T10:32:24;12.13;;;2.75;;
44764;SDS011;30484;52.382;5.260;2023-04-23T10:34:58;12.82;;;3.75;;
44764;SDS011;30484;52.382;5.260;2023-04-23T10:37:31;16.27;;;3.35;;
44764;SDS011;30484;52.382;5.260;2023-04-23T10:40:07;8.07;;;2.67;;
44764;SDS011;30484;52.382;5.260;2023-04-23T10:42:41;15.52;;;3.50;;
44764;SDS011;30484;52.382;5.260;2023-04-23T10:45:15;13.82;;;3.33;;
44764;SDS011;30484;52.382;5.260;2023-04-23T10:47:52;14.23;;;2.83;;
44764;SDS011;30484;52.382;5.260;2023-04-23T10:50:24;8.98;;;2.30;;
44764;SDS011;30484;52.382;5.260;2023-04-23T10:52:55;9.40;;;2.78;;
44764;SDS011;30484;52.382;5.260;2023-04-23T10:55:26;9.32;;;2.50;;
44764;SDS011;30484;52.382;5.260;2023-04-23T10:58:06;12.55;;;2.60;;
44764;SDS011;30484;52.382;5.260;2023-04-23T11:00:43;7.95;;;2.55;;
44764;SDS011;30484;52.382;5.260;2023-04-23T11:03:30;10.30;;;2.72;;
44764;SDS011;30484;52.382;5.260;2023-04-23T11:06:13;11.60;;;2.70;;
44764;SDS011;30484;52.382;5.260;2023-04-23T11:09:27;13.20;;;2.25;;
44764;SDS011;30484;52.382;5.260;2023-04-23T11:12:08;10.23;;;2.17;;
44764;SDS011;30484;52.382;5.260;2023-04-23T11:14:45;9.52;;;2.83;;
44764;SDS011;30484;52.382;5.260;2023-04-23T11:17:17;10.90;;;2.08;;
44764;SDS011;30484;52.382;5.260;2023-04-23T11:20:06;10.73;;;2.42;;
44764;SDS011;30484;52.382;5.260;2023-04-23T11:22:43;9.48;;;2.22;;
44764;SDS011;30484;52.382;5.260;2023-04-23T11:25:17;10.75;;;2.33;;
44764;SDS011;30484;52.382;5.260;2023-04-23T11:27:49;8.68;;;2.25;;
44764;SDS011;30484;52.382;5.260;2023-04-23T11:30:22;9.75;;;1.98;;
44764;SDS011;30484;52.382;5.260;2023-04-23T11:32:55;15.82;;;2.58;;
44764;SDS011;30484;52.382;5.260;2023-04-23T11:35:28;8.98;;;2.10;;
44764;SDS011;30484;52.382;5.260;2023-04-23T11:38:08;12.68;;;2.72;;
44764;SDS011;30484;52.382;5.260;2023-04-23T11:40:45;12.80;;;2.40;;
44764;SDS011;30484;52.382;5.260;2023-04-23T11:43:17;9.57;;;2.42;;
44764;SDS011;30484;52.382;5.260;2023-04-23T11:45:48;6.45;;;1.98;;
44764;SDS011;30484;52.382;5.260;2023-04-23T11:48:18;9.25;;;2.15;;
44764;SDS011;30484;52.382;5.260;2023-04-23T11:50:51;8.52;;;1.83;;
44764;SDS011;30484;52.382;5.260;2023-04-23T11:53:28;7.82;;;2.17;;
44764;SDS011;30484;52.382;5.260;2023-04-23T11:55:58;9.40;;;2.15;;
44764;SDS011;30484;52.382;5.260;2023-04-23T11:58:28;9.90;;;2.25;;
44764;SDS011;30484;52.382;5.260;2023-04-23T12:01:02;10.25;;;2.20;;
44764;SDS011;30484;52.382;5.260;2023-04-23T12:03:35;7.72;;;1.98;;
44764;SDS011;30484;52.382;5.260;2023-04-23T12:06:07;9.07;;;2.13;;
44764;SDS011;30484;52.382;5.260;2023-04-23T12:08:39;7.22;;;2.38;;
44764;SDS011;30484;52.382;5.260;2023-04-23T12:11:10;7.53;;;2.20;;
44764;SDS011;30484;52.382;5.260;2023-04-23T12:13:41;10.13;;;2.25;;
44764;SDS011;30484;52.382;5.260;2023-04-23T12:16:12;8.98;;;1.83;;
44764;SDS011;30484;52.382;5.260;2023-04-23T12:18:42;9.88;;;2.00;;
44764;SDS011;30484;52.382;5.260;2023-04-23T12:21:14;9.30;;;2.47;;
44764;SDS011;30484;52.382;5.260;2023-04-23T12:23:56;9.07;;;2.17;;
44764;SDS011;30484;52.382;5.260;2023-04-23T12:26:27;9.80;;;1.95;;
44764;SDS011;30484;52.382;5.260;2023-04-23T12:28:58;7.20;;;1.70;;
44764;SDS011;30484;52.382;5.260;2023-04-23T12:31:33;5.85;;;1.58;;
44764;SDS011;30484;52.382;5.260;2023-04-23T12:34:11;9.32;;;1.73;;
44764;SDS011;30484;52.382;5.260;2023-04-23T12:36:45;7.28;;;1.63;;
44764;SDS011;30484;52.382;5.260;2023-04-23T12:39:24;10.07;;;2.08;;
44764;SDS011;30484;52.382;5.260;2023-04-23T12:41:58;3.78;;;1.42;;
44764;SDS011;30484;52.382;5.260;2023-04-23T12:44:31;6.75;;;1.38;;
44764;SDS011;30484;52.382;5.260;2023-04-23T12:47:03;10.20;;;1.70;;
44764;SDS011;30484;52.382;5.260;2023-04-23T12:49:34;9.40;;;1.77;;
44764;SDS011;30484;52.382;5.260;2023-04-23T12:52:07;6.28;;;1.77;;
44764;SDS011;30484;52.382;5.260;2023-04-23T12:54:41;6.75;;;1.67;;
44764;SDS011;30484;52.382;5.260;2023-04-23T12:57:10;7.35;;;1.70;;
44764;SDS011;30484;52.382;5.260;2023-04-23T12:59:41;11.57;;;2.80;;
44764;SDS011;30484;52.382;5.260;2023-04-23T13:02:12;15.75;;;2.28;;
44764;SDS011;30484;52.382;5.260;2023-04-23T13:04:42;7.65;;;2.05;;
44764;SDS011;30484;52.382;5.260;2023-04-23T13:07:11;7.05;;;1.67;;
44764;SDS011;30484;52.382;5.260;2023-04-23T13:09:43;10.93;;;2.08;;
44764;SDS011;30484;52.382;5.260;2023-04-23T13:12:15;9.10;;;2.10;;
44764;SDS011;30484;52.382;5.260;2023-04-23T13:14:44;9.15;;;1.73;;
44764;SDS011;30484;52.382;5.260;2023-04-23T13:17:14;10.25;;;1.80;;
44764;SDS011;30484;52.382;5.260;2023-04-23T13:19:47;8.90;;;1.98;;
44764;SDS011;30484;52.382;5.260;2023-04-23T13:22:19;6.30;;;1.90;;
44764;SDS011;30484;52.382;5.260;2023-04-23T13:24:56;7.15;;;1.70;;
44764;SDS011;30484;52.382;5.260;2023-04-23T13:27:27;6.97;;;1.75;;
44764;SDS011;30484;52.382;5.260;2023-04-23T13:29:57;8.63;;;1.95;;
44764;SDS011;30484;52.382;5.260;2023-04-23T13:32:27;7.57;;;1.67;;
44764;SDS011;30484;52.382;5.260;2023-04-23T13:34:58;5.60;;;1.67;;
44764;SDS011;30484;52.382;5.260;2023-04-23T13:37:32;4.97;;;1.50;;
44764;SDS011;30484;52.382;5.260;2023-04-23T13:40:03;12.70;;;4.85;;
44764;SDS011;30484;52.382;5.260;2023-04-23T13:42:34;11.38;;;2.50;;
44764;SDS011;30484;52.382;5.260;2023-04-23T13:45:05;10.10;;;2.80;;
44764;SDS011;30484;52.382;5.260;2023-04-23T13:47:40;12.05;;;2.63;;
44764;SDS011;30484;52.382;5.260;2023-04-23T13:50:11;7.88;;;2.42;;
44764;SDS011;30484;52.382;5.260;2023-04-23T13:52:41;7.20;;;2.55;;
44764;SDS011;30484;52.382;5.260;2023-04-23T13:55:12;16.65;;;10.18;;
44764;SDS011;30484;52.382;5.260;2023-04-23T13:57:41;7.60;;;1.80;;
44764;SDS011;30484;52.382;5.260;2023-04-23T14:00:11;9.77;;;2.80;;
44764;SDS011;30484;52.382;5.260;2023-04-23T14:02:43;13.45;;;7.28;;
44764;SDS011;30484;52.382;5.260;2023-04-23T14:05:13;10.90;;;3.80;;
44764;SDS011;30484;52.382;5.260;2023-04-23T14:07:42;6.90;;;2.10;;
44764;SDS011;30484;52.382;5.260;2023-04-23T14:10:15;18.00;;;9.05;;
44764;SDS011;30484;52.382;5.260;2023-04-23T14:12:45;9.88;;;4.35;;
44764;SDS011;30484;52.382;5.260;2023-04-23T14:15:19;11.32;;;2.78;;
44764;SDS011;30484;52.382;5.260;2023-04-23T14:17:54;6.75;;;1.60;;
44764;SDS011;30484;52.382;5.260;2023-04-23T14:20:25;8.45;;;2.00;;
44764;SDS011;30484;52.382;5.260;2023-04-23T14:23:00;6.47;;;1.77;;
44764;SDS011;30484;52.382;5.260;2023-04-23T14:25:45;9.50;;;2.20;;
44764;SDS011;30484;52.382;5.260;2023-04-23T14:28:26;8.25;;;2.20;;
44764;SDS011;30484;52.382;5.260;2023-04-23T14:31:03;11.38;;;2.47;;
44764;SDS011;30484;52.382;5.260;2023-04-23T14:33:47;14.88;;;3.13;;
44764;SDS011;30484;52.382;5.260;2023-04-23T14:36:19;6.88;;;2.38;;
44764;SDS011;30484;52.382;5.260;2023-04-23T14:38:51;7.47;;;1.98;;
44764;SDS011;30484;52.382;5.260;2023-04-23T14:41:30;15.07;;;2.72;;
44764;SDS011;30484;52.382;5.260;2023-04-23T14:44:03;10.18;;;2.63;;
44764;SDS011;30484;52.382;5.260;2023-04-23T14:46:32;8.20;;;2.17;;
44764;SDS011;30484;52.382;5.260;2023-04-23T14:49:01;6.75;;;2.08;;
44764;SDS011;30484;52.382;5.260;2023-04-23T14:51:31;9.82;;;2.50;;
44764;SDS011;30484;52.382;5.260;2023-04-23T14:54:03;7.88;;;2.45;;
44764;SDS011;30484;52.382;5.260;2023-04-23T14:56:35;10.75;;;3.42;;
44764;SDS011;30484;52.382;5.260;2023-04-23T14:59:06;12.13;;;3.90;;
44764;SDS011;30484;52.382;5.260;2023-04-23T15:01:38;12.93;;;4.50;;
44764;SDS011;30484;52.382;5.260;2023-04-23T15:04:09;11.57;;;3.35;;
44764;SDS011;30484;52.382;5.260;2023-04-23T15:06:42;10.05;;;3.08;;